sensor_id;sensor_type;location;lat;lon;timestamp;P1;durP1;ratioP1;P2;durP2;ratioP2
3953;SDS011;1991;48.682;9.030;2023-04-10T00:00:29;7.70;;;6.90;;
3953;SDS011;1991;48.682;9.030;2023-04-10T00:02:55;8.83;;;7.27;;
3953;SDS011;1991;48.682;9.030;2023-04-10T00:05:22;9.50;;;7.50;;
3953;SDS011;1991;48.682;9.030;2023-04-10T00:07:48;9.37;;;7.27;;
3953;SDS011;1991;48.682;9.030;2023-04-10T00:10:13;8.53;;;7.40;;
3953;SDS011;1991;48.682;9.030;2023-04-10T00:12:39;8.47;;;7.57;;
3953;SDS011;1991;48.682;9.030;2023-04-10T00:15:04;9.10;;;7.83;;
3953;SDS011;1991;48.682;9.030;2023-04-10T00:17:31;8.17;;;7.10;;
3953;SDS011;1991;48.682;9.030;2023-04-10T00:19:56;8.73;;;7.40;;
3953;SDS011;1991;48.682;9.030;2023-04-10T00:22:23;9.40;;;7.70;;
3953;SDS011;1991;48.682;9.030;2023-04-10T00:24:49;9.87;;;7.13;;
3953;SDS011;1991;48.682;9.030;2023-04-10T00:27:14;9.73;;;7.30;;
3953;SDS011;1991;48.682;9.030;2023-04-10T00:29:40;9.80;;;7.13;;
3953;SDS011;1991;48.682;9.030;2023-04-10T00:32:05;8.97;;;7.17;;
3953;SDS011;1991;48.682;9.030;2023-04-10T00:34:31;9.40;;;7.40;;
3953;SDS011;1991;48.682;9.030;2023-04-10T00:36:57;9.20;;;7.03;;
3953;SDS011;1991;48.682;9.030;2023-04-10T00:39:23;10.03;;;7.57;;
3953;SDS011;1991;48.682;9.030;2023-04-10T00:41:48;8.03;;;6.63;;
3953;SDS011;1991;48.682;9.030;2023-04-10T00:44:14;8.27;;;6.77;;
3953;SDS011;1991;48.682;9.030;2023-04-10T00:46:40;9.03;;;7.40;;
3953;SDS011;1991;48.682;9.030;2023-04-10T00:49:05;8.43;;;6.57;;
3953;SDS011;1991;48.682;9.030;2023-04-10T00:51:33;9.03;;;7.30;;
3953;SDS011;1991;48.682;9.030;2023-04-10T00:54:00;9.50;;;7.43;;
3953;SDS011;1991;48.682;9.030;2023-04-10T00:56:26;10.50;;;7.93;;
3953;SDS011;1991;48.682;9.030;2023-04-10T00:58:54;8.37;;;7.03;;
3953;SDS011;1991;48.682;9.030;2023-04-10T01:01:19;9.37;;;7.40;;
3953;SDS011;1991;48.682;9.030;2023-04-10T01:03:45;8.50;;;6.87;;
3953;SDS011;1991;48.682;9.030;2023-04-10T01:06:15;8.93;;;7.33;;
3953;SDS011;1991;48.682;9.030;2023-04-10T01:17:06;10.23;;;7.73;;
3953;SDS011;1991;48.682;9.030;2023-04-10T01:22:27;9.50;;;8.03;;
3953;SDS011;1991;48.682;9.030;2023-04-10T01:28:14;10.20;;;8.17;;
3953;SDS011;1991;48.682;9.030;2023-04-10T01:30:44;10.63;;;7.80;;
3953;SDS011;1991;48.682;9.030;2023-04-10T01:33:12;9.63;;;7.43;;
3953;SDS011;1991;48.682;9.030;2023-04-10T01:35:42;9.97;;;7.20;;
3953;SDS011;1991;48.682;9.030;2023-04-10T01:38:11;10.10;;;7.87;;
3953;SDS011;1991;48.682;9.030;2023-04-10T01:40:39;10.07;;;7.00;;
3953;SDS011;1991;48.682;9.030;2023-04-10T01:43:12;10.80;;;8.17;;
3953;SDS011;1991;48.682;9.030;2023-04-10T01:45:39;10.73;;;8.00;;
3953;SDS011;1991;48.682;9.030;2023-04-10T01:48:07;10.63;;;8.43;;
3953;SDS011;1991;48.682;9.030;2023-04-10T01:50:34;11.37;;;7.37;;
3953;SDS011;1991;48.682;9.030;2023-04-10T01:53:00;9.80;;;7.83;;
3953;SDS011;1991;48.682;9.030;2023-04-10T01:55:31;10.33;;;7.13;;
3953;SDS011;1991;48.682;9.030;2023-04-10T01:57:58;9.57;;;7.30;;
3953;SDS011;1991;48.682;9.030;2023-04-10T02:00:25;11.03;;;7.80;;
3953;SDS011;1991;48.682;9.030;2023-04-10T02:02:51;11.60;;;7.87;;
3953;SDS011;1991;48.682;9.030;2023-04-10T02:05:17;10.13;;;7.83;;
3953;SDS011;1991;48.682;9.030;2023-04-10T02:08:05;9.13;;;7.53;;
3953;SDS011;1991;48.682;9.030;2023-04-10T02:10:44;11.67;;;7.17;;
3953;SDS011;1991;48.682;9.030;2023-04-10T02:13:30;8.83;;;7.43;;
3953;SDS011;1991;48.682;9.030;2023-04-10T02:15:59;10.83;;;7.87;;
3953;SDS011;1991;48.682;9.030;2023-04-10T02:18:31;10.70;;;8.33;;
3953;SDS011;1991;48.682;9.030;2023-04-10T02:20:59;11.00;;;8.00;;
3953;SDS011;1991;48.682;9.030;2023-04-10T02:23:25;9.37;;;7.57;;
3953;SDS011;1991;48.682;9.030;2023-04-10T02:25:51;9.83;;;7.30;;
3953;SDS011;1991;48.682;9.030;2023-04-10T02:28:16;9.23;;;7.37;;
3953;SDS011;1991;48.682;9.030;2023-04-10T02:30:42;8.03;;;6.80;;
3953;SDS011;1991;48.682;9.030;2023-04-10T02:33:07;9.93;;;7.67;;
3953;SDS011;1991;48.682;9.030;2023-04-10T02:35:33;8.93;;;7.00;;
3953;SDS011;1991;48.682;9.030;2023-04-10T02:37:59;10.57;;;7.03;;
3953;SDS011;1991;48.682;9.030;2023-04-10T02:40:24;9.30;;;7.60;;
3953;SDS011;1991;48.682;9.030;2023-04-10T02:42:50;9.90;;;7.73;;
3953;SDS011;1991;48.682;9.030;2023-04-10T02:45:16;9.97;;;7.53;;
3953;SDS011;1991;48.682;9.030;2023-04-10T02:47:41;10.23;;;7.77;;
3953;SDS011;1991;48.682;9.030;2023-04-10T02:50:07;10.47;;;8.10;;
3953;SDS011;1991;48.682;9.030;2023-04-10T02:52:33;9.40;;;7.93;;
3953;SDS011;1991;48.682;9.030;2023-04-10T02:54:59;10.13;;;7.77;;
3953;SDS011;1991;48.682;9.030;2023-04-10T02:57:25;9.27;;;7.50;;
3953;SDS011;1991;48.682;9.030;2023-04-10T02:59:52;10.10;;;7.30;;
3953;SDS011;1991;48.682;9.030;2023-04-10T03:02:18;8.87;;;7.30;;
3953;SDS011;1991;48.682;9.030;2023-04-10T03:04:44;10.83;;;7.90;;
3953;SDS011;1991;48.682;9.030;2023-04-10T03:07:10;8.90;;;7.43;;
3953;SDS011;1991;48.682;9.030;2023-04-10T03:09:35;10.20;;;6.47;;
3953;SDS011;1991;48.682;9.030;2023-04-10T03:12:01;9.57;;;7.63;;
3953;SDS011;1991;48.682;9.030;2023-04-10T03:14:27;9.43;;;7.73;;
3953;SDS011;1991;48.682;9.030;2023-04-10T03:16:52;9.43;;;7.33;;
3953;SDS011;1991;48.682;9.030;2023-04-10T03:19:18;9.07;;;7.43;;
3953;SDS011;1991;48.682;9.030;2023-04-10T03:21:44;8.73;;;7.03;;
3953;SDS011;1991;48.682;9.030;2023-04-10T03:24:10;12.93;;;7.70;;
3953;SDS011;1991;48.682;9.030;2023-04-10T03:26:36;8.70;;;6.70;;
3953;SDS011;1991;48.682;9.030;2023-04-10T03:29:02;11.97;;;7.53;;
3953;SDS011;1991;48.682;9.030;2023-04-10T03:31:27;11.53;;;7.60;;
3953;SDS011;1991;48.682;9.030;2023-04-10T03:33:53;10.97;;;6.97;;
3953;SDS011;1991;48.682;9.030;2023-04-10T03:36:19;8.60;;;6.90;;
3953;SDS011;1991;48.682;9.030;2023-04-10T03:38:45;9.10;;;7.30;;
3953;SDS011;1991;48.682;9.030;2023-04-10T03:41:10;8.87;;;7.33;;
3953;SDS011;1991;48.682;9.030;2023-04-10T03:43:36;9.67;;;7.37;;
3953;SDS011;1991;48.682;9.030;2023-04-10T03:46:01;9.87;;;7.53;;
3953;SDS011;1991;48.682;9.030;2023-04-10T03:48:27;9.63;;;7.10;;
3953;SDS011;1991;48.682;9.030;2023-04-10T03:50:54;10.13;;;7.90;;
3953;SDS011;1991;48.682;9.030;2023-04-10T03:53:20;9.00;;;6.97;;
3953;SDS011;1991;48.682;9.030;2023-04-10T03:55:46;9.63;;;7.57;;
3953;SDS011;1991;48.682;9.030;2023-04-10T03:58:11;11.07;;;8.27;;
3953;SDS011;1991;48.682;9.030;2023-04-10T04:00:37;8.43;;;7.20;;
3953;SDS011;1991;48.682;9.030;2023-04-10T04:03:03;9.63;;;7.30;;
3953;SDS011;1991;48.682;9.030;2023-04-10T04:05:29;9.73;;;7.60;;
3953;SDS011;1991;48.682;9.030;2023-04-10T04:07:55;9.17;;;7.60;;
3953;SDS011;1991;48.682;9.030;2023-04-10T04:10:21;13.23;;;7.73;;
3953;SDS011;1991;48.682;9.030;2023-04-10T04:12:46;10.53;;;7.83;;
3953;SDS011;1991;48.682;9.030;2023-04-10T04:15:12;9.83;;;7.63;;
3953;SDS011;1991;48.682;9.030;2023-04-10T04:17:37;9.83;;;7.53;;
3953;SDS011;1991;48.682;9.030;2023-04-10T04:20:04;9.83;;;7.43;;
3953;SDS011;1991;48.682;9.030;2023-04-10T04:22:30;11.07;;;8.17;;
3953;SDS011;1991;48.682;9.030;2023-04-10T04:24:55;9.07;;;7.10;;
3953;SDS011;1991;48.682;9.030;2023-04-10T04:27:21;10.33;;;7.67;;
3953;SDS011;1991;48.682;9.030;2023-04-10T04:29:47;9.80;;;7.47;;
3953;SDS011;1991;48.682;9.030;2023-04-10T04:32:13;10.93;;;7.70;;
3953;SDS011;1991;48.682;9.030;2023-04-10T04:34:38;9.73;;;7.07;;
3953;SDS011;1991;48.682;9.030;2023-04-10T04:37:04;12.27;;;7.60;;
3953;SDS011;1991;48.682;9.030;2023-04-10T04:39:30;12.60;;;8.10;;
3953;SDS011;1991;48.682;9.030;2023-04-10T04:41:55;8.10;;;6.73;;
3953;SDS011;1991;48.682;9.030;2023-04-10T04:44:21;9.13;;;7.30;;
3953;SDS011;1991;48.682;9.030;2023-04-10T04:46:46;10.20;;;7.80;;
3953;SDS011;1991;48.682;9.030;2023-04-10T04:49:12;10.60;;;7.83;;
3953;SDS011;1991;48.682;9.030;2023-04-10T04:51:38;9.03;;;7.23;;
3953;SDS011;1991;48.682;9.030;2023-04-10T04:54:03;10.17;;;8.27;;
3953;SDS011;1991;48.682;9.030;2023-04-10T04:56:29;8.33;;;6.63;;
3953;SDS011;1991;48.682;9.030;2023-04-10T04:58:55;9.57;;;7.20;;
3953;SDS011;1991;48.682;9.030;2023-04-10T05:01:20;9.77;;;7.20;;
3953;SDS011;1991;48.682;9.030;2023-04-10T05:03:46;10.53;;;7.43;;
3953;SDS011;1991;48.682;9.030;2023-04-10T05:06:11;10.07;;;7.50;;
3953;SDS011;1991;48.682;9.030;2023-04-10T05:08:38;9.87;;;7.37;;
3953;SDS011;1991;48.682;9.030;2023-04-10T05:11:04;10.93;;;8.23;;
3953;SDS011;1991;48.682;9.030;2023-04-10T05:13:30;11.13;;;8.07;;
3953;SDS011;1991;48.682;9.030;2023-04-10T05:15:55;10.67;;;8.03;;
3953;SDS011;1991;48.682;9.030;2023-04-10T05:18:21;9.67;;;7.37;;
3953;SDS011;1991;48.682;9.030;2023-04-10T05:20:47;8.87;;;7.27;;
3953;SDS011;1991;48.682;9.030;2023-04-10T05:23:14;10.87;;;7.77;;
3953;SDS011;1991;48.682;9.030;2023-04-10T05:25:40;10.03;;;7.43;;
3953;SDS011;1991;48.682;9.030;2023-04-10T05:28:06;10.63;;;7.67;;
3953;SDS011;1991;48.682;9.030;2023-04-10T05:30:31;10.83;;;7.87;;
3953;SDS011;1991;48.682;9.030;2023-04-10T05:32:57;9.10;;;6.90;;
3953;SDS011;1991;48.682;9.030;2023-04-10T05:35:23;10.07;;;7.40;;
3953;SDS011;1991;48.682;9.030;2023-04-10T05:37:48;10.73;;;7.03;;
3953;SDS011;1991;48.682;9.030;2023-04-10T05:40:14;9.67;;;7.33;;
3953;SDS011;1991;48.682;9.030;2023-04-10T05:42:39;9.83;;;7.70;;
3953;SDS011;1991;48.682;9.030;2023-04-10T05:45:05;10.97;;;7.83;;
3953;SDS011;1991;48.682;9.030;2023-04-10T05:47:31;9.07;;;7.37;;
3953;SDS011;1991;48.682;9.030;2023-04-10T05:49:57;10.33;;;7.90;;
3953;SDS011;1991;48.682;9.030;2023-04-10T05:52:22;9.87;;;8.37;;
3953;SDS011;1991;48.682;9.030;2023-04-10T05:54:48;10.87;;;8.70;;
3953;SDS011;1991;48.682;9.030;2023-04-10T05:57:15;10.17;;;8.37;;
3953;SDS011;1991;48.682;9.030;2023-04-10T05:59:41;11.10;;;8.80;;
3953;SDS011;1991;48.682;9.030;2023-04-10T06:02:06;11.67;;;9.03;;
3953;SDS011;1991;48.682;9.030;2023-04-10T06:04:32;10.87;;;8.83;;
3953;SDS011;1991;48.682;9.030;2023-04-10T06:06:57;13.30;;;8.80;;
3953;SDS011;1991;48.682;9.030;2023-04-10T06:09:23;10.23;;;7.80;;
3953;SDS011;1991;48.682;9.030;2023-04-10T06:11:49;10.50;;;8.57;;
3953;SDS011;1991;48.682;9.030;2023-04-10T06:14:16;10.93;;;8.47;;
3953;SDS011;1991;48.682;9.030;2023-04-10T06:16:43;11.67;;;9.07;;
3953;SDS011;1991;48.682;9.030;2023-04-10T06:19:08;11.73;;;8.93;;
3953;SDS011;1991;48.682;9.030;2023-04-10T06:21:35;13.20;;;9.33;;
3953;SDS011;1991;48.682;9.030;2023-04-10T06:24:00;9.80;;;8.63;;
3953;SDS011;1991;48.682;9.030;2023-04-10T06:26:26;13.00;;;8.97;;
3953;SDS011;1991;48.682;9.030;2023-04-10T06:28:51;11.47;;;8.60;;
3953;SDS011;1991;48.682;9.030;2023-04-10T06:31:18;11.57;;;8.90;;
3953;SDS011;1991;48.682;9.030;2023-04-10T06:33:46;10.93;;;8.43;;
3953;SDS011;1991;48.682;9.030;2023-04-10T06:36:12;11.43;;;8.63;;
3953;SDS011;1991;48.682;9.030;2023-04-10T06:38:38;12.07;;;8.47;;
3953;SDS011;1991;48.682;9.030;2023-04-10T06:41:04;12.40;;;8.90;;
3953;SDS011;1991;48.682;9.030;2023-04-10T06:43:32;11.70;;;8.63;;
3953;SDS011;1991;48.682;9.030;2023-04-10T06:45:58;14.67;;;8.60;;
3953;SDS011;1991;48.682;9.030;2023-04-10T06:48:24;11.30;;;7.93;;
3953;SDS011;1991;48.682;9.030;2023-04-10T06:50:49;9.43;;;7.83;;
3953;SDS011;1991;48.682;9.030;2023-04-10T06:53:15;9.87;;;7.30;;
3953;SDS011;1991;48.682;9.030;2023-04-10T06:55:41;9.20;;;7.70;;
3953;SDS011;1991;48.682;9.030;2023-04-10T06:58:06;12.10;;;7.73;;
3953;SDS011;1991;48.682;9.030;2023-04-10T07:00:32;9.97;;;7.37;;
3953;SDS011;1991;48.682;9.030;2023-04-10T07:02:57;9.73;;;7.17;;
3953;SDS011;1991;48.682;9.030;2023-04-10T07:05:23;8.57;;;6.93;;
3953;SDS011;1991;48.682;9.030;2023-04-10T07:07:49;8.37;;;6.93;;
3953;SDS011;1991;48.682;9.030;2023-04-10T07:10:14;8.93;;;7.63;;
3953;SDS011;1991;48.682;9.030;2023-04-10T07:12:40;8.00;;;6.50;;
3953;SDS011;1991;48.682;9.030;2023-04-10T07:15:07;6.63;;;5.77;;
3953;SDS011;1991;48.682;9.030;2023-04-10T07:17:32;5.23;;;4.73;;
3953;SDS011;1991;48.682;9.030;2023-04-10T07:19:58;6.57;;;4.73;;
3953;SDS011;1991;48.682;9.030;2023-04-10T07:22:24;5.13;;;4.53;;
3953;SDS011;1991;48.682;9.030;2023-04-10T07:24:50;5.73;;;4.80;;
3953;SDS011;1991;48.682;9.030;2023-04-10T07:27:16;4.40;;;4.00;;
3953;SDS011;1991;48.682;9.030;2023-04-10T07:29:41;5.30;;;4.27;;
3953;SDS011;1991;48.682;9.030;2023-04-10T07:32:07;5.33;;;4.70;;
3953;SDS011;1991;48.682;9.030;2023-04-10T07:34:33;7.23;;;4.70;;
3953;SDS011;1991;48.682;9.030;2023-04-10T07:36:58;5.63;;;4.70;;
3953;SDS011;1991;48.682;9.030;2023-04-10T07:39:24;5.77;;;4.67;;
3953;SDS011;1991;48.682;9.030;2023-04-10T07:41:51;4.80;;;4.30;;
3953;SDS011;1991;48.682;9.030;2023-04-10T07:44:18;4.77;;;4.30;;
3953;SDS011;1991;48.682;9.030;2023-04-10T07:46:44;4.90;;;4.30;;
3953;SDS011;1991;48.682;9.030;2023-04-10T07:49:09;4.83;;;4.03;;
3953;SDS011;1991;48.682;9.030;2023-04-10T07:51:36;4.37;;;3.97;;
3953;SDS011;1991;48.682;9.030;2023-04-10T07:54:02;4.17;;;3.73;;
3953;SDS011;1991;48.682;9.030;2023-04-10T07:56:28;3.97;;;3.57;;
3953;SDS011;1991;48.682;9.030;2023-04-10T07:58:59;3.90;;;3.50;;
3953;SDS011;1991;48.682;9.030;2023-04-10T08:01:25;4.53;;;3.70;;
3953;SDS011;1991;48.682;9.030;2023-04-10T08:03:52;4.33;;;3.73;;
3953;SDS011;1991;48.682;9.030;2023-04-10T08:06:19;4.17;;;3.77;;
3953;SDS011;1991;48.682;9.030;2023-04-10T08:08:44;4.17;;;3.77;;
3953;SDS011;1991;48.682;9.030;2023-04-10T08:13:55;4.93;;;4.20;;
3953;SDS011;1991;48.682;9.030;2023-04-10T08:16:22;4.10;;;3.70;;
3953;SDS011;1991;48.682;9.030;2023-04-10T08:18:53;4.17;;;3.73;;
3953;SDS011;1991;48.682;9.030;2023-04-10T08:21:23;6.40;;;3.70;;
3953;SDS011;1991;48.682;9.030;2023-04-10T08:23:56;4.03;;;3.50;;
3953;SDS011;1991;48.682;9.030;2023-04-10T08:26:24;3.47;;;3.17;;
3953;SDS011;1991;48.682;9.030;2023-04-10T08:28:50;4.20;;;3.23;;
3953;SDS011;1991;48.682;9.030;2023-04-10T08:31:17;5.07;;;3.83;;
3953;SDS011;1991;48.682;9.030;2023-04-10T08:33:44;4.23;;;3.80;;
3953;SDS011;1991;48.682;9.030;2023-04-10T08:36:10;3.63;;;3.33;;
3953;SDS011;1991;48.682;9.030;2023-04-10T08:38:37;3.70;;;3.40;;
3953;SDS011;1991;48.682;9.030;2023-04-10T08:41:03;4.57;;;3.77;;
3953;SDS011;1991;48.682;9.030;2023-04-10T08:43:29;3.97;;;3.43;;
3953;SDS011;1991;48.682;9.030;2023-04-10T08:45:55;5.00;;;3.33;;
3953;SDS011;1991;48.682;9.030;2023-04-10T08:48:21;3.72;;;3.30;;
3953;SDS011;1991;48.682;9.030;2023-04-10T08:50:55;3.60;;;3.30;;
3953;SDS011;1991;48.682;9.030;2023-04-10T08:53:25;3.13;;;2.88;;
3953;SDS011;1991;48.682;9.030;2023-04-10T08:55:54;3.80;;;3.38;;
3953;SDS011;1991;48.682;9.030;2023-04-10T08:58:20;6.18;;;3.40;;
3953;SDS011;1991;48.682;9.030;2023-04-10T09:00:46;3.72;;;3.22;;
3953;SDS011;1991;48.682;9.030;2023-04-10T09:03:13;3.55;;;3.22;;
3953;SDS011;1991;48.682;9.030;2023-04-10T09:05:39;3.28;;;2.97;;
3953;SDS011;1991;48.682;9.030;2023-04-10T09:08:08;3.10;;;2.58;;
3953;SDS011;1991;48.682;9.030;2023-04-10T09:10:35;3.08;;;2.78;;
3953;SDS011;1991;48.682;9.030;2023-04-10T09:13:00;2.92;;;2.65;;
3953;SDS011;1991;48.682;9.030;2023-04-10T09:15:27;2.90;;;2.60;;
3953;SDS011;1991;48.682;9.030;2023-04-10T09:17:53;3.25;;;2.75;;
3953;SDS011;1991;48.682;9.030;2023-04-10T09:20:24;2.80;;;2.53;;
3953;SDS011;1991;48.682;9.030;2023-04-10T09:22:51;2.72;;;2.53;;
3953;SDS011;1991;48.682;9.030;2023-04-10T09:25:30;2.53;;;2.33;;
3953;SDS011;1991;48.682;9.030;2023-04-10T09:28:00;2.45;;;2.17;;
3953;SDS011;1991;48.682;9.030;2023-04-10T09:30:34;2.30;;;2.10;;
3953;SDS011;1991;48.682;9.030;2023-04-10T09:33:01;2.25;;;2.00;;
3953;SDS011;1991;48.682;9.030;2023-04-10T09:35:36;2.70;;;2.50;;
3953;SDS011;1991;48.682;9.030;2023-04-10T09:38:12;2.33;;;2.13;;
3953;SDS011;1991;48.682;9.030;2023-04-10T09:40:42;3.45;;;2.10;;
3953;SDS011;1991;48.682;9.030;2023-04-10T09:43:16;2.20;;;2.00;;
3953;SDS011;1991;48.682;9.030;2023-04-10T09:45:45;2.47;;;2.22;;
3953;SDS011;1991;48.682;9.030;2023-04-10T09:48:12;2.10;;;1.90;;
3953;SDS011;1991;48.682;9.030;2023-04-10T09:50:38;2.42;;;2.00;;
3953;SDS011;1991;48.682;9.030;2023-04-10T09:53:05;2.25;;;2.05;;
3953;SDS011;1991;48.682;9.030;2023-04-10T09:55:33;2.17;;;2.00;;
3953;SDS011;1991;48.682;9.030;2023-04-10T09:58:00;2.22;;;2.03;;
3953;SDS011;1991;48.682;9.030;2023-04-10T10:00:27;2.10;;;1.90;;
3953;SDS011;1991;48.682;9.030;2023-04-10T10:02:53;2.03;;;1.90;;
3953;SDS011;1991;48.682;9.030;2023-04-10T10:05:21;2.22;;;2.03;;
3953;SDS011;1991;48.682;9.030;2023-04-10T10:07:51;2.15;;;1.95;;
3953;SDS011;1991;48.682;9.030;2023-04-10T10:10:18;1.73;;;1.63;;
3953;SDS011;1991;48.682;9.030;2023-04-10T10:12:50;2.22;;;2.08;;
3953;SDS011;1991;48.682;9.030;2023-04-10T10:15:30;2.40;;;2.20;;
3953;SDS011;1991;48.682;9.030;2023-04-10T10:18:21;2.35;;;2.20;;
3953;SDS011;1991;48.682;9.030;2023-04-10T10:20:55;2.28;;;2.08;;
3953;SDS011;1991;48.682;9.030;2023-04-10T10:23:21;2.72;;;1.73;;
3953;SDS011;1991;48.682;9.030;2023-04-10T10:25:47;2.10;;;1.90;;
3953;SDS011;1991;48.682;9.030;2023-04-10T10:28:14;2.10;;;1.92;;
3953;SDS011;1991;48.682;9.030;2023-04-10T10:30:41;2.35;;;2.15;;
3953;SDS011;1991;48.682;9.030;2023-04-10T10:33:08;1.77;;;1.67;;
3953;SDS011;1991;48.682;9.030;2023-04-10T10:35:36;1.90;;;1.80;;
3953;SDS011;1991;48.682;9.030;2023-04-10T10:38:02;1.73;;;1.52;;
3953;SDS011;1991;48.682;9.030;2023-04-10T10:40:32;1.77;;;1.67;;
3953;SDS011;1991;48.682;9.030;2023-04-10T10:43:12;1.60;;;1.50;;
3953;SDS011;1991;48.682;9.030;2023-04-10T10:45:49;1.50;;;1.40;;
3953;SDS011;1991;48.682;9.030;2023-04-10T10:48:35;1.58;;;1.48;;
3953;SDS011;1991;48.682;9.030;2023-04-10T10:51:00;2.28;;;1.20;;
3953;SDS011;1991;48.682;9.030;2023-04-10T10:53:31;1.27;;;1.17;;
3953;SDS011;1991;48.682;9.030;2023-04-10T10:56:00;1.15;;;1.05;;
3953;SDS011;1991;48.682;9.030;2023-04-10T10:58:47;3.35;;;1.00;;
3953;SDS011;1991;48.682;9.030;2023-04-10T11:01:14;1.15;;;1.05;;
3953;SDS011;1991;48.682;9.030;2023-04-10T11:03:41;1.50;;;1.25;;
3953;SDS011;1991;48.682;9.030;2023-04-10T11:06:09;0.95;;;0.93;;
3953;SDS011;1991;48.682;9.030;2023-04-10T11:11:05;0.90;;;0.90;;
3953;SDS011;1991;48.682;9.030;2023-04-10T11:13:39;0.73;;;0.73;;
3953;SDS011;1991;48.682;9.030;2023-04-10T11:19:05;1.00;;;1.00;;
3953;SDS011;1991;48.682;9.030;2023-04-10T11:21:32;1.10;;;1.00;;
3953;SDS011;1991;48.682;9.030;2023-04-10T11:31:42;1.20;;;1.10;;
3953;SDS011;1991;48.682;9.030;2023-04-10T11:34:09;1.20;;;1.10;;
3953;SDS011;1991;48.682;9.030;2023-04-10T11:36:39;1.42;;;1.15;;
3953;SDS011;1991;48.682;9.030;2023-04-10T11:39:07;1.23;;;1.13;;
3953;SDS011;1991;48.682;9.030;2023-04-10T11:41:37;1.35;;;1.20;;
3953;SDS011;1991;48.682;9.030;2023-04-10T11:44:04;1.20;;;0.95;;
3953;SDS011;1991;48.682;9.030;2023-04-10T11:46:34;0.95;;;0.93;;
3953;SDS011;1991;48.682;9.030;2023-04-10T11:49:02;0.95;;;0.80;;
3953;SDS011;1991;48.682;9.030;2023-04-10T11:51:29;0.73;;;0.60;;
3953;SDS011;1991;48.682;9.030;2023-04-10T11:54:11;0.80;;;0.80;;
3953;SDS011;1991;48.682;9.030;2023-04-10T11:56:43;0.90;;;0.80;;
3953;SDS011;1991;48.682;9.030;2023-04-10T11:59:22;0.80;;;0.80;;
3953;SDS011;1991;48.682;9.030;2023-04-10T12:01:49;0.98;;;0.80;;
3953;SDS011;1991;48.682;9.030;2023-04-10T12:04:19;0.73;;;0.73;;
3953;SDS011;1991;48.682;9.030;2023-04-10T12:06:46;1.15;;;0.68;;
3953;SDS011;1991;48.682;9.030;2023-04-10T12:09:17;0.50;;;0.50;;
3953;SDS011;1991;48.682;9.030;2023-04-10T12:11:50;1.95;;;0.77;;
3953;SDS011;1991;48.682;9.030;2023-04-10T12:14:20;1.13;;;1.02;;
3953;SDS011;1991;48.682;9.030;2023-04-10T12:16:47;0.73;;;0.63;;
3953;SDS011;1991;48.682;9.030;2023-04-10T12:19:14;0.50;;;0.50;;
3953;SDS011;1991;48.682;9.030;2023-04-10T12:21:43;0.60;;;0.60;;
3953;SDS011;1991;48.682;9.030;2023-04-10T12:24:10;0.63;;;0.50;;
3953;SDS011;1991;48.682;9.030;2023-04-10T12:26:36;0.77;;;0.68;;
3953;SDS011;1991;48.682;9.030;2023-04-10T12:29:02;0.52;;;0.50;;
3953;SDS011;1991;48.682;9.030;2023-04-10T12:31:31;0.40;;;0.40;;
3953;SDS011;1991;48.682;9.030;2023-04-10T12:33:58;0.40;;;0.40;;
3953;SDS011;1991;48.682;9.030;2023-04-10T12:36:25;1.27;;;1.05;;
3953;SDS011;1991;48.682;9.030;2023-04-10T12:38:59;1.63;;;0.60;;
3953;SDS011;1991;48.682;9.030;2023-04-10T12:41:28;1.10;;;0.68;;
3953;SDS011;1991;48.682;9.030;2023-04-10T12:46:34;0.70;;;0.63;;
3953;SDS011;1991;48.682;9.030;2023-04-10T12:51:46;0.60;;;0.60;;
3953;SDS011;1991;48.682;9.030;2023-04-10T12:54:30;0.95;;;0.70;;
3953;SDS011;1991;48.682;9.030;2023-04-10T12:56:57;1.00;;;0.80;;
3953;SDS011;1991;48.682;9.030;2023-04-10T12:59:23;0.75;;;0.75;;
3953;SDS011;1991;48.682;9.030;2023-04-10T13:01:50;1.10;;;1.00;;
3953;SDS011;1991;48.682;9.030;2023-04-10T13:04:16;0.90;;;0.82;;
3953;SDS011;1991;48.682;9.030;2023-04-10T13:06:46;0.82;;;0.82;;
3953;SDS011;1991;48.682;9.030;2023-04-10T13:09:12;1.83;;;0.77;;
3953;SDS011;1991;48.682;9.030;2023-04-10T13:11:38;1.85;;;1.00;;
3953;SDS011;1991;48.682;9.030;2023-04-10T13:14:04;0.43;;;0.43;;
3953;SDS011;1991;48.682;9.030;2023-04-10T13:16:30;0.70;;;0.70;;
3953;SDS011;1991;48.682;9.030;2023-04-10T13:18:56;1.10;;;1.00;;
3953;SDS011;1991;48.682;9.030;2023-04-10T13:21:22;1.33;;;0.90;;
3953;SDS011;1991;48.682;9.030;2023-04-10T13:23:50;0.80;;;0.80;;
3953;SDS011;1991;48.682;9.030;2023-04-10T13:26:16;1.25;;;0.60;;
3953;SDS011;1991;48.682;9.030;2023-04-10T13:28:41;0.50;;;0.50;;
3953;SDS011;1991;48.682;9.030;2023-04-10T13:31:07;0.98;;;0.90;;
3953;SDS011;1991;48.682;9.030;2023-04-10T13:33:33;1.02;;;0.90;;
3953;SDS011;1991;48.682;9.030;2023-04-10T13:35:58;0.85;;;0.60;;
3953;SDS011;1991;48.682;9.030;2023-04-10T13:38:24;2.13;;;0.60;;
3953;SDS011;1991;48.682;9.030;2023-04-10T13:40:51;0.80;;;0.70;;
3953;SDS011;1991;48.682;9.030;2023-04-10T13:43:17;0.68;;;0.68;;
3953;SDS011;1991;48.682;9.030;2023-04-10T13:45:43;0.70;;;0.70;;
3953;SDS011;1991;48.682;9.030;2023-04-10T13:48:08;0.70;;;0.60;;
3953;SDS011;1991;48.682;9.030;2023-04-10T13:50:34;0.73;;;0.73;;
3953;SDS011;1991;48.682;9.030;2023-04-10T13:53:00;0.60;;;0.60;;
3953;SDS011;1991;48.682;9.030;2023-04-10T13:55:25;0.95;;;0.60;;
3953;SDS011;1991;48.682;9.030;2023-04-10T13:57:51;1.33;;;1.23;;
3953;SDS011;1991;48.682;9.030;2023-04-10T14:00:16;0.63;;;0.50;;
3953;SDS011;1991;48.682;9.030;2023-04-10T14:02:42;0.82;;;0.75;;
3953;SDS011;1991;48.682;9.030;2023-04-10T14:05:08;0.57;;;0.57;;
3953;SDS011;1991;48.682;9.030;2023-04-10T14:07:34;0.50;;;0.50;;
3953;SDS011;1991;48.682;9.030;2023-04-10T14:10:00;0.98;;;0.65;;
3953;SDS011;1991;48.682;9.030;2023-04-10T14:12:26;0.95;;;0.70;;
3953;SDS011;1991;48.682;9.030;2023-04-10T14:14:52;0.68;;;0.63;;
3953;SDS011;1991;48.682;9.030;2023-04-10T14:17:17;0.50;;;0.50;;
3953;SDS011;1991;48.682;9.030;2023-04-10T14:19:43;0.73;;;0.70;;
3953;SDS011;1991;48.682;9.030;2023-04-10T14:22:15;0.63;;;0.63;;
3953;SDS011;1991;48.682;9.030;2023-04-10T14:24:41;0.60;;;0.60;;
3953;SDS011;1991;48.682;9.030;2023-04-10T14:27:07;2.70;;;0.60;;
3953;SDS011;1991;48.682;9.030;2023-04-10T14:29:32;0.90;;;0.80;;
3953;SDS011;1991;48.682;9.030;2023-04-10T14:31:58;0.60;;;0.60;;
3953;SDS011;1991;48.682;9.030;2023-04-10T14:34:24;0.63;;;0.55;;
3953;SDS011;1991;48.682;9.030;2023-04-10T14:36:49;0.60;;;0.60;;
3953;SDS011;1991;48.682;9.030;2023-04-10T14:39:19;0.55;;;0.45;;
3953;SDS011;1991;48.682;9.030;2023-04-10T14:41:48;0.50;;;0.50;;
3953;SDS011;1991;48.682;9.030;2023-04-10T14:44:14;0.63;;;0.60;;
3953;SDS011;1991;48.682;9.030;2023-04-10T14:46:40;0.60;;;0.60;;
3953;SDS011;1991;48.682;9.030;2023-04-10T14:49:05;1.27;;;0.57;;
3953;SDS011;1991;48.682;9.030;2023-04-10T14:51:31;0.75;;;0.68;;
3953;SDS011;1991;48.682;9.030;2023-04-10T14:53:57;1.00;;;0.65;;
3953;SDS011;1991;48.682;9.030;2023-04-10T14:56:23;0.47;;;0.47;;
3953;SDS011;1991;48.682;9.030;2023-04-10T14:58:48;2.03;;;0.82;;
3953;SDS011;1991;48.682;9.030;2023-04-10T15:01:14;1.90;;;0.65;;
3953;SDS011;1991;48.682;9.030;2023-04-10T15:03:41;0.82;;;0.82;;
3953;SDS011;1991;48.682;9.030;2023-04-10T15:06:06;1.77;;;0.75;;
3953;SDS011;1991;48.682;9.030;2023-04-10T15:08:32;0.75;;;0.75;;
3953;SDS011;1991;48.682;9.030;2023-04-10T15:10:58;0.95;;;0.90;;
3953;SDS011;1991;48.682;9.030;2023-04-10T15:13:24;0.90;;;0.80;;
3953;SDS011;1991;48.682;9.030;2023-04-10T15:15:49;1.25;;;1.00;;
3953;SDS011;1991;48.682;9.030;2023-04-10T15:18:15;0.98;;;0.90;;
3953;SDS011;1991;48.682;9.030;2023-04-10T15:20:41;0.70;;;0.70;;
3953;SDS011;1991;48.682;9.030;2023-04-10T15:23:07;0.75;;;0.73;;
3953;SDS011;1991;48.682;9.030;2023-04-10T15:25:34;1.02;;;0.93;;
3953;SDS011;1991;48.682;9.030;2023-04-10T15:27:59;0.90;;;0.85;;
3953;SDS011;1991;48.682;9.030;2023-04-10T15:30:25;0.95;;;0.70;;
3953;SDS011;1991;48.682;9.030;2023-04-10T15:32:51;0.70;;;0.70;;
3953;SDS011;1991;48.682;9.030;2023-04-10T15:35:16;0.68;;;0.68;;
3953;SDS011;1991;48.682;9.030;2023-04-10T15:37:42;1.13;;;1.02;;
3953;SDS011;1991;48.682;9.030;2023-04-10T15:40:08;0.80;;;0.80;;
3953;SDS011;1991;48.682;9.030;2023-04-10T15:42:34;0.93;;;0.80;;
3953;SDS011;1991;48.682;9.030;2023-04-10T15:45:00;1.00;;;0.80;;
3953;SDS011;1991;48.682;9.030;2023-04-10T15:47:27;1.73;;;0.73;;